NCAR-RAP Real-Time Weather Data

Output produced by METARs form (08 May 2021  01:35 UTC)
found at http://weather.rap.ucar.edu/surface/
 
KSCK 080055Z 30012KT 10SM CLR 25/08 A2994 RMK AO2 SLP137 T02500083
KSCK 072355Z 32012G19KT 10SM CLR 26/08 A2994 RMK AO2 SLP139 T02560083 10261 20189 56021
KSCK 072255Z 32010G19KT 10SM CLR 26/07 A2996 RMK AO2 SLP143 T02560072
KSCK 072155Z 31010KT 10SM CLR 25/08 A2998 RMK AO2 SLP152 T02500083
KSCK 072055Z 29013G17KT 10SM CLR 23/08 A3000 RMK AO2 SLP159 T02330083 58010
KSCK 071955Z 31008G16KT 10SM CLR 21/08 A3002 RMK AO2 SLP166 T02110083
KSCK 071855Z 29008KT 10SM CLR 21/08 A3003 RMK AO2 SLP169 T02060083
KSCK 071755Z 32013KT 10SM CLR 19/09 A3003 RMK AO2 SLP169 T01890094 10194 20094 51003
KSCK 071655Z VRB04KT 10SM CLR 17/08 A3003 RMK AO2 SLP167 T01670078
KSCK 071555Z 28008KT 10SM CLR 15/08 A3003 RMK AO2 SLP169 T01500078
KSCK 071455Z 27011KT 10SM CLR 13/08 A3002 RMK AO2 SLP166 T01280078 53012
KSCK 071355Z 27010KT 10SM CLR 11/07 A3001 RMK AO2 SLP162 T01060072
KSCK 071255Z AUTO 27007KT 10SM CLR 10/07 A2999 RMK AO2 SLP155 T01000072